createdAt,value
2018-04-19T00:00:14.556Z,100306.57
2018-04-19T00:02:48.119Z,100305.10
2018-04-19T00:05:21.668Z,100306.41
2018-04-19T00:07:55.500Z,100302.45
2018-04-19T00:10:29.272Z,100305.69
2018-04-19T00:13:02.820Z,100301.14
2018-04-19T00:15:36.398Z,100297.56
2018-04-19T00:18:09.982Z,100302.86
2018-04-19T00:20:43.509Z,100295.53
2018-04-19T00:23:17.045Z,100296.91
2018-04-19T00:25:50.560Z,100302.60
2018-04-19T00:28:24.100Z,100300.15
2018-04-19T00:30:57.599Z,100301.68
2018-04-19T00:33:31.252Z,100298.72
2018-04-19T00:36:05.029Z,100299.41
2018-04-19T00:38:38.590Z,100295.13
2018-04-19T00:41:12.150Z,100294.56
2018-04-19T00:43:45.835Z,100293.46
2018-04-19T00:46:19.497Z,100292.91
2018-04-19T00:48:53.107Z,100291.89
2018-04-19T00:51:26.924Z,100290.15
2018-04-19T00:54:00.559Z,100287.05
2018-04-19T00:56:34.112Z,100282.48
2018-04-19T00:59:07.860Z,100278.24
2018-04-19T01:01:41.655Z,100274.44
2018-04-19T01:04:15.313Z,100273.69
2018-04-19T01:06:49.095Z,100266.43
2018-04-19T01:09:22.618Z,100268.38
2018-04-19T01:11:56.143Z,100270.95
2018-04-19T01:14:29.667Z,100261.83
2018-04-19T01:17:03.229Z,100259.07
2018-04-19T01:19:36.812Z,100265.23
2018-04-19T01:22:10.344Z,100257.07
2018-04-19T01:24:43.887Z,100257.64
2018-04-19T01:27:17.523Z,100259.91
2018-04-19T01:29:51.148Z,100253.00
2018-04-19T01:32:24.638Z,100253.96
2018-04-19T01:34:58.380Z,100259.45
2018-04-19T01:37:31.960Z,100256.23
2018-04-19T01:40:05.456Z,100253.77
2018-04-19T01:42:39.203Z,100248.76
2018-04-19T01:45:12.892Z,100242.78
2018-04-19T01:47:46.710Z,100247.95
2018-04-19T01:50:20.272Z,100255.05
2018-04-19T01:52:53.804Z,100253.92
2018-04-19T01:55:27.347Z,100251.25
2018-04-19T01:58:01.464Z,100246.71
2018-04-19T02:00:35.192Z,100243.20
2018-04-19T02:03:08.772Z,100247.53
2018-04-19T02:05:42.516Z,100255.66
2018-04-19T02:08:16.333Z,100246.44
2018-04-19T02:10:50.072Z,100250.88
2018-04-19T02:13:23.816Z,100244.05
2018-04-19T02:15:57.349Z,100246.61
2018-04-19T02:18:31.106Z,100248.28
2018-04-19T02:21:04.752Z,100245.16
2018-04-19T02:23:38.304Z,100238.96
2018-04-19T02:26:11.855Z,100244.21
2018-04-19T02:28:45.422Z,100235.72
2018-04-19T02:31:19.172Z,100239.20
2018-04-19T02:33:52.800Z,100236.14
2018-04-19T02:36:26.328Z,100228.77
2018-04-19T02:38:59.872Z,100230.06
2018-04-19T02:41:33.412Z,100230.86
2018-04-19T02:44:06.953Z,100221.67
2018-04-19T02:46:40.460Z,100222.50
2018-04-19T02:49:14.188Z,100227.73
2018-04-19T02:51:47.842Z,100219.02
2018-04-19T02:54:21.316Z,100220.21
2018-04-19T02:56:54.930Z,100216.45
2018-04-19T02:59:28.553Z,100221.54
2018-04-19T03:02:02.338Z,100212.34
2018-04-19T03:04:35.930Z,100209.00
2018-04-19T03:07:09.540Z,100215.08
2018-04-19T03:09:43.136Z,100210.41
2018-04-19T03:12:16.720Z,100208.94
2018-04-19T03:14:50.488Z,100205.31
2018-04-19T03:17:24.043Z,100204.36
2018-04-19T03:19:57.743Z,100203.53
2018-04-19T03:22:31.285Z,100200.22
2018-04-19T03:25:04.979Z,100196.92
2018-04-19T03:27:38.574Z,100200.45
2018-04-19T03:30:12.287Z,100198.83
2018-04-19T03:32:45.811Z,100197.22
2018-04-19T03:35:19.549Z,100196.25
2018-04-19T03:37:53.326Z,100199.25
2018-04-19T03:40:26.848Z,100197.55
2018-04-19T03:43:00.556Z,100201.88
2018-04-19T03:45:34.158Z,100197.19
2018-04-19T03:48:07.732Z,100195.74
2018-04-19T03:50:41.283Z,100198.26
2018-04-19T03:53:14.843Z,100188.44
2018-04-19T03:55:48.399Z,100191.76
2018-04-19T03:58:21.972Z,100189.34
2018-04-19T04:00:55.497Z,100195.69
2018-04-19T04:03:29.028Z,100188.61
2018-04-19T04:06:02.775Z,100184.95
2018-04-19T04:08:36.506Z,100189.42
2018-04-19T04:11:10.083Z,100186.98
2018-04-19T04:13:43.605Z,100181.64
2018-04-19T04:16:29.192Z,100187.23
2018-04-19T04:19:14.676Z,100175.17
2018-04-19T04:22:00.429Z,100174.66
2018-04-19T04:24:34.251Z,100178.32
2018-04-19T04:27:08.072Z,100173.55
2018-04-19T04:29:41.735Z,100182.22
2018-04-19T04:32:15.460Z,100179.25
2018-04-19T04:34:48.973Z,100186.12
2018-04-19T04:37:22.538Z,100181.98
2018-04-19T04:39:56.075Z,100178.75
2018-04-19T04:42:29.672Z,100176.88
2018-04-19T04:45:03.406Z,100176.00
2018-04-19T04:47:36.957Z,100182.13
2018-04-19T04:50:10.484Z,100180.34
2018-04-19T04:52:43.952Z,100188.33
2018-04-19T04:55:17.727Z,100182.00
2018-04-19T04:57:51.383Z,100182.72
2018-04-19T05:00:24.925Z,100184.41
2018-04-19T05:02:58.658Z,100180.91
2018-04-19T05:05:32.752Z,100182.20
2018-04-19T05:08:06.409Z,100180.02
2018-04-19T05:10:40.165Z,100184.06
2018-04-19T05:13:13.692Z,100185.91
2018-04-19T05:15:47.291Z,100188.69
2018-04-19T05:18:20.923Z,100187.31
2018-04-19T05:20:54.546Z,100186.36
2018-04-19T05:23:28.310Z,100182.36
2018-04-19T05:26:01.801Z,100189.27
2018-04-19T05:28:35.372Z,100185.52
2018-04-19T05:31:08.960Z,100183.75
2018-04-19T05:33:42.698Z,100180.64
2018-04-19T05:36:16.464Z,100184.08
2018-04-19T05:38:50.295Z,100189.57
2018-04-19T05:41:24.072Z,100188.91
2018-04-19T05:43:57.684Z,100187.69
2018-04-19T05:46:31.257Z,100196.46
2018-04-19T05:49:04.840Z,100192.84
2018-04-19T05:51:38.365Z,100184.80
2018-04-19T05:54:11.948Z,100187.80
2018-04-19T05:56:45.499Z,100191.62
2018-04-19T05:59:19.260Z,100197.98
2018-04-19T06:01:52.793Z,100191.06
2018-04-19T06:04:26.333Z,100187.84
2018-04-19T06:06:59.857Z,100184.17
2018-04-19T06:09:33.829Z,100185.66
2018-04-19T06:12:07.459Z,100189.53
2018-04-19T06:14:41.072Z,100189.00
2018-04-19T06:17:14.592Z,100180.36
2018-04-19T06:19:48.141Z,100188.79
2018-04-19T06:22:21.703Z,100182.54
2018-04-19T06:24:55.243Z,100188.40
2018-04-19T06:27:28.742Z,100183.82
2018-04-19T06:30:02.464Z,100181.04
2018-04-19T06:32:36.787Z,100184.58
2018-04-19T06:35:12.183Z,100190.45
2018-04-19T06:37:45.896Z,100185.27
2018-04-19T06:40:20.099Z,100190.20
2018-04-19T06:42:53.827Z,100192.29
2018-04-19T06:45:27.385Z,100187.34
2018-04-19T06:48:00.976Z,100193.75
2018-04-19T06:50:35.352Z,100194.95
2018-04-19T06:53:09.100Z,100197.95
2018-04-19T06:55:42.796Z,100194.11
2018-04-19T06:58:16.364Z,100199.66
2018-04-19T07:00:50.680Z,100202.81
2018-04-19T07:03:24.423Z,100193.52
2018-04-19T07:05:58.292Z,100201.31
2018-04-19T07:08:32.033Z,100205.13
2018-04-19T07:11:05.583Z,100199.08
2018-04-19T07:13:39.297Z,100203.49
2018-04-19T07:16:12.872Z,100196.54
2018-04-19T07:18:46.440Z,100205.47
2018-04-19T07:21:19.950Z,100205.02
2018-04-19T07:23:53.504Z,100204.46
2018-04-19T07:26:27.079Z,100200.12
2018-04-19T07:29:00.856Z,100202.70
2018-04-19T07:31:35.242Z,100203.12
2018-04-19T07:34:08.988Z,100212.70
2018-04-19T07:36:42.574Z,100209.06
2018-04-19T07:39:16.668Z,100207.70
2018-04-19T07:41:50.278Z,100199.71
2018-04-19T07:44:23.820Z,100199.92
2018-04-19T07:46:57.344Z,100196.22
2018-04-19T07:49:30.888Z,100200.53
2018-04-19T07:52:04.610Z,100199.39
2018-04-19T07:54:38.359Z,100197.79
2018-04-19T07:57:11.912Z,100201.34
2018-04-19T07:59:45.428Z,100191.84
2018-04-19T08:02:19.207Z,100195.75
2018-04-19T08:04:52.832Z,100187.88
2018-04-19T08:07:26.391Z,100196.52
2018-04-19T08:09:59.987Z,100193.70
2018-04-19T08:12:33.695Z,100201.55
2018-04-19T08:15:07.188Z,100195.09
2018-04-19T08:17:40.652Z,100193.62
2018-04-19T08:20:14.216Z,100195.50
2018-04-19T08:22:48.003Z,100198.18
2018-04-19T08:25:22.657Z,100199.13
2018-04-19T08:27:56.163Z,100190.87
2018-04-19T08:30:30.044Z,100195.39
2018-04-19T08:33:03.651Z,100196.01
2018-04-19T08:35:37.837Z,100190.30
2018-04-19T08:38:11.565Z,100196.67
2018-04-19T08:40:45.232Z,100191.81
2018-04-19T08:43:19.961Z,100189.55
2018-04-19T08:45:53.640Z,100185.49
2018-04-19T08:48:27.797Z,100182.08
2018-04-19T08:51:01.665Z,100199.34
2018-04-19T08:53:35.495Z,100187.74
2018-04-19T08:56:09.348Z,100194.94
2018-04-19T08:58:42.954Z,100194.33
2018-04-19T09:01:16.756Z,100189.63
2018-04-19T09:03:50.744Z,100185.36
2018-04-19T09:06:24.329Z,100188.58
2018-04-19T09:08:58.068Z,100192.42
2018-04-19T09:11:31.700Z,100184.74
2018-04-19T09:14:05.252Z,100186.31
2018-04-19T09:16:38.805Z,100189.23
2018-04-19T09:19:12.484Z,100183.65
2018-04-19T09:21:47.016Z,100190.35
2018-04-19T09:24:20.563Z,100175.78
2018-04-19T09:26:54.320Z,100182.48
2018-04-19T09:29:27.804Z,100185.43
2018-04-19T09:32:01.348Z,100187.90
2018-04-19T09:34:34.883Z,100180.88
2018-04-19T09:37:08.683Z,100185.50
2018-04-19T09:39:42.253Z,100174.69
2018-04-19T09:42:15.874Z,100179.21
2018-04-19T09:44:49.522Z,100173.30
2018-04-19T09:47:23.192Z,100174.30
2018-04-19T09:49:56.699Z,100180.27
2018-04-19T09:52:30.321Z,100184.28
2018-04-19T09:55:03.831Z,100175.89
2018-04-19T09:57:37.460Z,100167.98
2018-04-19T10:00:11.018Z,100168.97
2018-04-19T10:02:44.640Z,100165.14
2018-04-19T10:05:19.895Z,100164.55
2018-04-19T10:07:53.604Z,100160.81
2018-04-19T10:10:27.268Z,100159.13
2018-04-19T10:13:00.884Z,100158.15
2018-04-19T10:15:34.462Z,100161.69
2018-04-19T10:18:08.065Z,100149.46
2018-04-19T10:20:41.719Z,100155.83
2018-04-19T10:23:15.440Z,100163.80
2018-04-19T10:25:49.135Z,100150.25
2018-04-19T10:28:23.480Z,100149.12
2018-04-19T10:30:57.216Z,100140.59
2018-04-19T10:33:30.768Z,100141.17
2018-04-19T10:36:04.292Z,100135.68
2018-04-19T10:38:37.875Z,100140.17
2018-04-19T10:41:11.417Z,100140.49
2018-04-19T10:43:45.129Z,100137.22
2018-04-19T10:46:18.744Z,100134.79
2018-04-19T10:48:52.368Z,100123.56
2018-04-19T10:51:26.161Z,100125.00
2018-04-19T10:53:59.880Z,100125.26
2018-04-19T10:56:33.569Z,100116.79
2018-04-19T10:59:07.339Z,100134.88
2018-04-19T11:01:41.069Z,100122.02
2018-04-19T11:04:15.730Z,100132.83
2018-04-19T11:06:49.509Z,100117.82
2018-04-19T11:09:23.062Z,100109.94
2018-04-19T11:11:56.797Z,100114.07
2018-04-19T11:14:30.436Z,100105.06
2018-04-19T11:17:04.049Z,100108.20
2018-04-19T11:19:37.605Z,100107.34
2018-04-19T11:22:11.512Z,100107.27
2018-04-19T11:24:45.261Z,100093.90
2018-04-19T11:27:18.937Z,100099.16
2018-04-19T11:29:52.545Z,100093.42
2018-04-19T11:32:26.231Z,100096.23
2018-04-19T11:35:01.955Z,100092.59
2018-04-19T11:37:35.677Z,100087.38
2018-04-19T11:40:09.281Z,100082.61
2018-04-19T11:42:43.002Z,100084.25
2018-04-19T11:45:16.765Z,100088.59
2018-04-19T11:47:50.600Z,100091.56
2018-04-19T11:50:24.317Z,100084.83
2018-04-19T11:52:57.962Z,100087.98
2018-04-19T11:55:31.719Z,100080.30
2018-04-19T11:58:05.390Z,100084.72
2018-04-19T12:00:39.153Z,100078.13
2018-04-19T12:03:12.970Z,100076.17
2018-04-19T12:05:46.628Z,100077.61
2018-04-19T12:08:20.312Z,100067.83
2018-04-19T12:11:10.011Z,100070.42
2018-04-19T12:13:43.798Z,100063.45
2018-04-19T12:16:17.326Z,100061.09
2018-04-19T12:18:50.872Z,100058.45
2018-04-19T12:21:24.428Z,100060.36
2018-04-19T12:23:58.193Z,100052.14
2018-04-19T12:26:31.802Z,100047.06
2018-04-19T12:29:05.408Z,100055.80
2018-04-19T12:31:40.232Z,100057.34
2018-04-19T12:34:15.124Z,100047.81
2018-04-19T12:36:48.808Z,100051.25
2018-04-19T12:39:22.484Z,100047.50
2018-04-19T12:41:57.544Z,100045.48
2018-04-19T12:44:31.225Z,100039.92
2018-04-19T12:47:04.760Z,100046.47
2018-04-19T12:49:38.546Z,100040.51
2018-04-19T12:52:12.247Z,100043.88
2018-04-19T12:54:45.773Z,100031.74
2018-04-19T12:57:19.413Z,100044.33
2018-04-19T12:59:53.035Z,100044.52
2018-04-19T13:02:26.659Z,100038.32
2018-04-19T13:05:00.301Z,100030.14
2018-04-19T13:07:33.964Z,100037.94
2018-04-19T13:10:07.735Z,100028.73
2018-04-19T13:12:41.372Z,100027.92
2018-04-19T13:15:15.068Z,100032.09
2018-04-19T13:17:48.606Z,100025.27
2018-04-19T13:20:23.084Z,100020.12
2018-04-19T13:22:56.788Z,100020.19
2018-04-19T13:25:30.353Z,100013.08
2018-04-19T13:28:03.842Z,100021.47
2018-04-19T13:30:37.442Z,100007.72
2018-04-19T13:33:11.515Z,100011.52
2018-04-19T13:35:45.201Z,100000.10
2018-04-19T13:38:19.019Z,99997.31
2018-04-19T13:40:52.625Z,100000.75
2018-04-19T13:43:26.209Z,99996.55
2018-04-19T13:45:59.954Z,99995.75
2018-04-19T13:48:33.501Z,99996.75
2018-04-19T13:51:07.227Z,99985.74
2018-04-19T13:53:40.807Z,99991.77
2018-04-19T13:56:14.398Z,99986.98
2018-04-19T13:58:48.008Z,99981.99
2018-04-19T14:01:21.596Z,99988.77
2018-04-19T14:03:55.291Z,99970.80
2018-04-19T14:06:28.980Z,99973.55
2018-04-19T14:09:02.682Z,99969.28
2018-04-19T14:11:36.468Z,99962.91
2018-04-19T14:14:10.015Z,99962.24
2018-04-19T14:16:43.724Z,99958.94
2018-04-19T14:19:17.470Z,99951.87
2018-04-19T14:21:51.023Z,99944.48
2018-04-19T14:24:24.797Z,99943.06
2018-04-19T14:26:58.560Z,99941.88
2018-04-19T14:29:34.614Z,99951.45
2018-04-19T14:32:08.289Z,99941.80
2018-04-19T14:34:41.908Z,99942.36
2018-04-19T14:37:15.575Z,99943.38
2018-04-19T14:39:49.221Z,99932.45
2018-04-19T14:42:22.781Z,99933.98
2018-04-19T14:44:56.468Z,99928.35
2018-04-19T14:47:30.028Z,99926.50
2018-04-19T14:50:03.806Z,99926.62
2018-04-19T14:52:37.596Z,99926.84
2018-04-19T14:55:11.260Z,99922.16
2018-04-19T14:57:44.881Z,99928.28
2018-04-19T15:00:18.337Z,99923.51
2018-04-19T15:02:52.158Z,99918.17
2018-04-19T15:05:25.808Z,99921.83
2018-04-19T15:08:04.911Z,99911.73
2018-04-19T15:10:38.627Z,99918.09
2018-04-19T15:13:12.242Z,99910.17
2018-04-19T15:15:45.874Z,99895.16
2018-04-19T15:18:19.496Z,99907.95
2018-04-19T15:20:53.152Z,99908.61
2018-04-19T15:23:26.781Z,99911.05
2018-04-19T15:26:00.956Z,99900.45
2018-04-19T15:28:36.186Z,99915.88
2018-04-19T15:31:09.883Z,99907.09
2018-04-19T15:33:43.528Z,99909.14
2018-04-19T15:36:17.177Z,99900.35
2018-04-19T15:38:50.684Z,99892.28
2018-04-19T15:41:24.449Z,99894.41
2018-04-19T15:43:58.519Z,99895.70
2018-04-19T15:46:33.053Z,99893.91
2018-04-19T15:49:06.767Z,99893.92
2018-04-19T15:51:40.556Z,99898.15
2018-04-19T15:54:14.182Z,99885.77
2018-04-19T15:56:47.855Z,99883.91
2018-04-19T15:59:21.408Z,99882.31
2018-04-19T16:01:55.683Z,99880.89
2018-04-19T16:04:29.278Z,99891.02
2018-04-19T16:07:02.805Z,99887.95
2018-04-19T16:09:36.456Z,99883.90
2018-04-19T16:12:10.255Z,99878.63
2018-04-19T16:14:43.791Z,99883.11
2018-04-19T16:17:17.503Z,99877.03
2018-04-19T16:19:51.119Z,99874.11
2018-04-19T16:22:24.807Z,99874.58
2018-04-19T16:24:58.579Z,99876.86
2018-04-19T16:27:32.652Z,99867.31
2018-04-19T16:30:06.360Z,99866.17
2018-04-19T16:32:40.016Z,99868.21
2018-04-19T16:35:13.700Z,99868.05
2018-04-19T16:37:47.931Z,99865.09
2018-04-19T16:40:21.699Z,99866.36
2018-04-19T16:42:55.456Z,99861.58
2018-04-19T16:45:29.225Z,99863.77
2018-04-19T16:48:02.960Z,99856.40
2018-04-19T16:50:36.580Z,99858.80
2018-04-19T16:53:10.438Z,99853.43
2018-04-19T16:55:44.200Z,99855.27
2018-04-19T16:58:17.727Z,99855.44
2018-04-19T17:00:51.509Z,99855.85
2018-04-19T17:03:25.033Z,99846.50
2018-04-19T17:05:58.821Z,99852.67
2018-04-19T17:08:32.811Z,99848.87
2018-04-19T17:11:06.391Z,99854.26
2018-04-19T17:13:39.903Z,99850.88
2018-04-19T17:16:13.472Z,99842.88
2018-04-19T17:18:47.260Z,99847.26
2018-04-19T17:21:20.880Z,99854.23
2018-04-19T17:23:54.460Z,99844.98
2018-04-19T17:26:28.064Z,99850.14
2018-04-19T17:29:04.622Z,99851.53
2018-04-19T17:31:38.424Z,99847.53
2018-04-19T17:34:11.984Z,99849.47
2018-04-19T17:36:45.511Z,99851.81
2018-04-19T17:39:19.052Z,99848.94
2018-04-19T17:41:52.608Z,99847.52
2018-04-19T17:44:26.360Z,99852.27
2018-04-19T17:46:59.916Z,99846.47
2018-04-19T17:49:34.377Z,99851.35
2018-04-19T17:52:08.857Z,99847.55
2018-04-19T17:54:42.564Z,99855.28
2018-04-19T17:57:16.243Z,99858.98
2018-04-19T17:59:50.832Z,99848.72
2018-04-19T18:02:24.356Z,99845.06
2018-04-19T18:04:57.972Z,99852.16
2018-04-19T18:07:31.516Z,99848.41
2018-04-19T18:10:05.299Z,99849.62
2018-04-19T18:12:38.820Z,99845.19
2018-04-19T18:15:12.336Z,99851.44
2018-04-19T18:17:45.881Z,99854.97
2018-04-19T18:20:21.282Z,99857.90
2018-04-19T18:22:55.035Z,99859.95
2018-04-19T18:25:29.156Z,99860.77
2018-04-19T18:28:02.945Z,99859.23
2018-04-19T18:30:36.424Z,99855.70
2018-04-19T18:33:10.125Z,99853.59
2018-04-19T18:35:43.975Z,99858.86
2018-04-19T18:38:17.508Z,99862.30
2018-04-19T18:40:51.036Z,99859.17
2018-04-19T18:43:24.742Z,99860.22
2018-04-19T18:45:58.425Z,99864.86
2018-04-19T18:48:32.144Z,99862.36
2018-04-19T18:51:05.685Z,99867.41
2018-04-19T18:53:39.400Z,99866.76
2018-04-19T18:56:13.112Z,99872.13
2018-04-19T18:58:46.631Z,99867.95
2018-04-19T19:01:20.236Z,99870.84
2018-04-19T19:03:53.719Z,99866.94
2018-04-19T19:06:27.472Z,99873.73
2018-04-19T19:09:01.576Z,99880.39
2018-04-19T19:11:35.808Z,99877.20
2018-04-19T19:14:09.373Z,99870.20
2018-04-19T19:16:43.378Z,99876.88
2018-04-19T19:19:29.015Z,99881.01
2018-04-19T19:22:02.700Z,99882.48
2018-04-19T19:24:36.281Z,99882.30
2018-04-19T19:27:09.940Z,99879.16
2018-04-19T19:29:44.400Z,99880.01
2018-04-19T19:32:18.143Z,99883.82
2018-04-19T19:34:51.728Z,99882.95
2018-04-19T19:37:25.529Z,99890.02
2018-04-19T19:39:59.082Z,99884.17
2018-04-19T19:42:32.655Z,99887.06
2018-04-19T19:45:06.643Z,99882.38
2018-04-19T19:47:40.362Z,99889.70
2018-04-19T19:50:13.866Z,99886.52
2018-04-19T19:52:47.614Z,99890.94
2018-04-19T19:55:21.178Z,99887.15
2018-04-19T19:57:54.799Z,99889.17
2018-04-19T20:00:28.360Z,99884.34
2018-04-19T20:03:02.180Z,99882.64
2018-04-19T20:05:35.833Z,99883.58
2018-04-19T20:08:09.487Z,99879.42
2018-04-19T20:10:43.070Z,99879.86
2018-04-19T20:13:16.844Z,99881.42
2018-04-19T20:15:50.484Z,99881.83
2018-04-19T20:18:24.155Z,99880.66
2018-04-19T20:20:57.775Z,99883.28
2018-04-19T20:23:31.599Z,99885.46
2018-04-19T20:26:05.137Z,99889.84
2018-04-19T20:28:38.800Z,99887.84
2018-04-19T20:31:12.315Z,99885.15
2018-04-19T20:33:46.825Z,99887.81
2018-04-19T20:36:20.471Z,99884.15
2018-04-19T20:38:54.176Z,99889.16
2018-04-19T20:41:27.752Z,99892.65
2018-04-19T20:44:01.600Z,99887.65
2018-04-19T20:46:35.240Z,99889.50
2018-04-19T20:49:08.916Z,99889.75
2018-04-19T20:51:42.544Z,99879.40
2018-04-19T20:54:16.335Z,99884.30
2018-04-19T20:56:49.849Z,99884.02
2018-04-19T20:59:23.376Z,99873.28
2018-04-19T21:01:57.061Z,99883.84
2018-04-19T21:04:30.804Z,99883.11
2018-04-19T21:07:04.335Z,99878.33
2018-04-19T21:09:37.886Z,99886.87
2018-04-19T21:12:11.396Z,99889.20
2018-04-19T21:14:44.946Z,99888.70
2018-04-19T21:17:18.580Z,99890.34
2018-04-19T21:19:52.427Z,99885.53
2018-04-19T21:22:25.908Z,99887.64
2018-04-19T21:24:59.690Z,99889.00
2018-04-19T21:27:33.325Z,99886.28
2018-04-19T21:30:07.116Z,99884.63
2018-04-19T21:32:40.744Z,99885.77
2018-04-19T21:35:14.349Z,99883.02
2018-04-19T21:37:47.928Z,99883.25
2018-04-19T21:40:21.656Z,99880.27
2018-04-19T21:42:55.310Z,99877.69
2018-04-19T21:45:29.075Z,99876.42
2018-04-19T21:48:02.628Z,99879.13
2018-04-19T21:50:36.180Z,99881.19
2018-04-19T21:53:09.939Z,99881.82
2018-04-19T21:55:43.684Z,99880.87
2018-04-19T21:58:17.793Z,99875.17
2018-04-19T22:00:51.548Z,99882.70
2018-04-19T22:03:25.114Z,99883.20
2018-04-19T22:05:58.692Z,99882.16
2018-04-19T22:08:32.399Z,99883.20
2018-04-19T22:11:06.048Z,99880.73
2018-04-19T22:13:39.652Z,99877.80
2018-04-19T22:16:13.238Z,99883.59
2018-04-19T22:18:46.784Z,99869.65
2018-04-19T22:21:20.467Z,99874.13
2018-04-19T22:23:54.527Z,99875.20
2018-04-19T22:26:28.124Z,99872.27
2018-04-19T22:29:01.653Z,99877.34
2018-04-19T22:31:35.404Z,99871.29
2018-04-19T22:34:09.004Z,99872.05
2018-04-19T22:36:42.636Z,99883.00
2018-04-19T22:39:18.564Z,99879.89
2018-04-19T22:41:52.307Z,99879.47
2018-04-19T22:44:25.995Z,99874.60
2018-04-19T22:50:01.612Z,99875.45
2018-04-19T22:52:35.343Z,99872.81
2018-04-19T22:55:08.820Z,99871.13
2018-04-19T22:57:42.507Z,99871.37
2018-04-19T23:00:16.985Z,99875.31
2018-04-19T23:02:50.646Z,99870.92
2018-04-19T23:05:24.349Z,99869.55
2018-04-19T23:07:57.970Z,99866.92
2018-04-19T23:10:31.750Z,99864.09
2018-04-19T23:13:05.628Z,99864.42
2018-04-19T23:15:39.248Z,99866.30
2018-04-19T23:18:13.004Z,99863.76
2018-04-19T23:20:46.531Z,99861.75
2018-04-19T23:23:20.116Z,99867.41
2018-04-19T23:25:53.834Z,99869.63
2018-04-19T23:28:27.452Z,99862.92
2018-04-19T23:31:01.024Z,99862.09
2018-04-19T23:33:34.675Z,99858.39
2018-04-19T23:36:08.556Z,99867.91
2018-04-19T23:38:42.236Z,99857.63
2018-04-19T23:41:16.008Z,99857.30
2018-04-19T23:43:49.664Z,99856.32
2018-04-19T23:46:23.263Z,99854.45
2018-04-19T23:48:56.832Z,99851.05
2018-04-19T23:51:30.423Z,99851.80
2018-04-19T23:54:04.032Z,99850.67
2018-04-19T23:56:37.802Z,99848.23
2018-04-19T23:59:11.538Z,99852.88
